sensor_id;sensor_type;location;lat;lon;timestamp;P1;durP1;ratioP1;P2;durP2;ratioP2
12715;SDS011;6422;49.938;9.124;2023-01-05T00:01:31;2.40;;;0.70;;
12715;SDS011;6422;49.938;9.124;2023-01-05T00:03:57;0.60;;;0.50;;
12715;SDS011;6422;49.938;9.124;2023-01-05T00:06:22;0.70;;;0.50;;
12715;SDS011;6422;49.938;9.124;2023-01-05T00:08:47;0.60;;;0.50;;
12715;SDS011;6422;49.938;9.124;2023-01-05T00:11:13;1.00;;;0.70;;
12715;SDS011;6422;49.938;9.124;2023-01-05T00:13:58;0.60;;;0.50;;
12715;SDS011;6422;49.938;9.124;2023-01-05T00:16:41;0.60;;;0.40;;
12715;SDS011;6422;49.938;9.124;2023-01-05T00:19:25;1.67;;;0.60;;
12715;SDS011;6422;49.938;9.124;2023-01-05T00:22:13;0.70;;;0.50;;
12715;SDS011;6422;49.938;9.124;2023-01-05T00:24:56;1.40;;;0.70;;
12715;SDS011;6422;49.938;9.124;2023-01-05T00:27:22;0.70;;;0.50;;
12715;SDS011;6422;49.938;9.124;2023-01-05T00:29:47;0.60;;;0.40;;
12715;SDS011;6422;49.938;9.124;2023-01-05T00:32:12;0.60;;;0.50;;
12715;SDS011;6422;49.938;9.124;2023-01-05T00:34:37;0.60;;;0.40;;
12715;SDS011;6422;49.938;9.124;2023-01-05T00:37:02;0.60;;;0.40;;
12715;SDS011;6422;49.938;9.124;2023-01-05T00:39:27;1.27;;;0.67;;
12715;SDS011;6422;49.938;9.124;2023-01-05T00:41:53;0.60;;;0.50;;
12715;SDS011;6422;49.938;9.124;2023-01-05T00:44:18;0.60;;;0.45;;
12715;SDS011;6422;49.938;9.124;2023-01-05T00:46:43;0.60;;;0.50;;
12715;SDS011;6422;49.938;9.124;2023-01-05T00:49:08;0.70;;;0.50;;
12715;SDS011;6422;49.938;9.124;2023-01-05T00:51:33;0.70;;;0.50;;
12715;SDS011;6422;49.938;9.124;2023-01-05T00:53:58;0.80;;;0.50;;
12715;SDS011;6422;49.938;9.124;2023-01-05T00:56:24;0.87;;;0.60;;
12715;SDS011;6422;49.938;9.124;2023-01-05T00:58:51;0.73;;;0.50;;
12715;SDS011;6422;49.938;9.124;2023-01-05T01:01:16;0.60;;;0.43;;
12715;SDS011;6422;49.938;9.124;2023-01-05T01:03:41;0.90;;;0.60;;
12715;SDS011;6422;49.938;9.124;2023-01-05T01:06:07;1.43;;;0.90;;
12715;SDS011;6422;49.938;9.124;2023-01-05T01:08:32;0.70;;;0.40;;
12715;SDS011;6422;49.938;9.124;2023-01-05T01:11:01;0.70;;;0.60;;
12715;SDS011;6422;49.938;9.124;2023-01-05T01:13:26;0.87;;;0.50;;
12715;SDS011;6422;49.938;9.124;2023-01-05T01:15:52;0.60;;;0.40;;
12715;SDS011;6422;49.938;9.124;2023-01-05T01:18:17;1.25;;;0.63;;
12715;SDS011;6422;49.938;9.124;2023-01-05T01:20:42;0.70;;;0.60;;
12715;SDS011;6422;49.938;9.124;2023-01-05T01:23:07;0.98;;;0.70;;
12715;SDS011;6422;49.938;9.124;2023-01-05T01:25:32;0.70;;;0.60;;
12715;SDS011;6422;49.938;9.124;2023-01-05T01:27:58;0.90;;;0.53;;
12715;SDS011;6422;49.938;9.124;2023-01-05T01:30:23;2.30;;;1.00;;
12715;SDS011;6422;49.938;9.124;2023-01-05T01:32:48;0.60;;;0.40;;
12715;SDS011;6422;49.938;9.124;2023-01-05T01:35:13;0.60;;;0.50;;
12715;SDS011;6422;49.938;9.124;2023-01-05T01:37:38;0.60;;;0.50;;
12715;SDS011;6422;49.938;9.124;2023-01-05T01:40:04;0.83;;;0.60;;
12715;SDS011;6422;49.938;9.124;2023-01-05T01:42:29;1.40;;;0.87;;
12715;SDS011;6422;49.938;9.124;2023-01-05T01:49:54;0.70;;;0.60;;
12715;SDS011;6422;49.938;9.124;2023-01-05T01:52:21;0.80;;;0.70;;
12715;SDS011;6422;49.938;9.124;2023-01-05T01:54:48;1.17;;;0.60;;
12715;SDS011;6422;49.938;9.124;2023-01-05T01:57:14;0.60;;;0.50;;
12715;SDS011;6422;49.938;9.124;2023-01-05T01:59:40;0.63;;;0.50;;
12715;SDS011;6422;49.938;9.124;2023-01-05T02:02:05;0.70;;;0.50;;
12715;SDS011;6422;49.938;9.124;2023-01-05T02:04:31;1.00;;;0.60;;
12715;SDS011;6422;49.938;9.124;2023-01-05T02:06:57;7.17;;;0.93;;
12715;SDS011;6422;49.938;9.124;2023-01-05T02:09:23;0.80;;;0.60;;
12715;SDS011;6422;49.938;9.124;2023-01-05T02:12:03;0.60;;;0.50;;
12715;SDS011;6422;49.938;9.124;2023-01-05T02:14:35;0.70;;;0.60;;
12715;SDS011;6422;49.938;9.124;2023-01-05T02:17:19;1.00;;;0.83;;
12715;SDS011;6422;49.938;9.124;2023-01-05T02:25:15;0.60;;;0.40;;
12715;SDS011;6422;49.938;9.124;2023-01-05T02:27:48;0.60;;;0.50;;
12715;SDS011;6422;49.938;9.124;2023-01-05T02:32:54;0.60;;;0.40;;
12715;SDS011;6422;49.938;9.124;2023-01-05T02:40:43;0.70;;;0.40;;
12715;SDS011;6422;49.938;9.124;2023-01-05T02:43:12;0.70;;;0.50;;
12715;SDS011;6422;49.938;9.124;2023-01-05T02:45:37;0.60;;;0.40;;
12715;SDS011;6422;49.938;9.124;2023-01-05T02:48:02;1.07;;;0.63;;
12715;SDS011;6422;49.938;9.124;2023-01-05T02:50:34;0.60;;;0.40;;
12715;SDS011;6422;49.938;9.124;2023-01-05T02:53:13;0.60;;;0.40;;
12715;SDS011;6422;49.938;9.124;2023-01-05T02:55:44;0.60;;;0.40;;
12715;SDS011;6422;49.938;9.124;2023-01-05T02:58:12;1.83;;;0.90;;
12715;SDS011;6422;49.938;9.124;2023-01-05T03:00:43;0.93;;;0.60;;
12715;SDS011;6422;49.938;9.124;2023-01-05T03:05:35;0.70;;;0.50;;
12715;SDS011;6422;49.938;9.124;2023-01-05T03:08:03;0.80;;;0.50;;
12715;SDS011;6422;49.938;9.124;2023-01-05T03:10:34;0.97;;;0.60;;
12715;SDS011;6422;49.938;9.124;2023-01-05T03:13:18;0.90;;;0.63;;
12715;SDS011;6422;49.938;9.124;2023-01-05T03:16:03;1.17;;;0.70;;
12715;SDS011;6422;49.938;9.124;2023-01-05T03:18:29;1.13;;;0.70;;
12715;SDS011;6422;49.938;9.124;2023-01-05T03:20:55;0.90;;;0.63;;
12715;SDS011;6422;49.938;9.124;2023-01-05T03:23:21;0.90;;;0.57;;
12715;SDS011;6422;49.938;9.124;2023-01-05T03:26:06;0.70;;;0.57;;
12715;SDS011;6422;49.938;9.124;2023-01-05T03:28:53;0.60;;;0.40;;
12715;SDS011;6422;49.938;9.124;2023-01-05T03:31:38;4.33;;;0.80;;
12715;SDS011;6422;49.938;9.124;2023-01-05T03:34:42;0.63;;;0.50;;
12715;SDS011;6422;49.938;9.124;2023-01-05T03:37:46;0.63;;;0.50;;
12715;SDS011;6422;49.938;9.124;2023-01-05T03:40:13;1.37;;;0.90;;
12715;SDS011;6422;49.938;9.124;2023-01-05T03:42:39;0.90;;;0.67;;
12715;SDS011;6422;49.938;9.124;2023-01-05T03:45:05;0.90;;;0.60;;
12715;SDS011;6422;49.938;9.124;2023-01-05T03:47:31;1.00;;;0.60;;
12715;SDS011;6422;49.938;9.124;2023-01-05T03:49:56;1.10;;;0.70;;
12715;SDS011;6422;49.938;9.124;2023-01-05T03:52:21;1.07;;;0.70;;
12715;SDS011;6422;49.938;9.124;2023-01-05T03:54:46;1.92;;;1.05;;
12715;SDS011;6422;49.938;9.124;2023-01-05T03:57:11;1.40;;;0.65;;
12715;SDS011;6422;49.938;9.124;2023-01-05T03:59:37;0.60;;;0.50;;
12715;SDS011;6422;49.938;9.124;2023-01-05T04:02:02;1.10;;;0.73;;
12715;SDS011;6422;49.938;9.124;2023-01-05T04:04:28;1.47;;;0.70;;
12715;SDS011;6422;49.938;9.124;2023-01-05T04:06:53;1.10;;;0.70;;
12715;SDS011;6422;49.938;9.124;2023-01-05T04:09:18;1.57;;;1.07;;
12715;SDS011;6422;49.938;9.124;2023-01-05T04:11:44;4.38;;;1.17;;
12715;SDS011;6422;49.938;9.124;2023-01-05T04:14:09;0.63;;;0.50;;
12715;SDS011;6422;49.938;9.124;2023-01-05T04:16:34;0.70;;;0.63;;
12715;SDS011;6422;49.938;9.124;2023-01-05T04:18:59;0.70;;;0.40;;
12715;SDS011;6422;49.938;9.124;2023-01-05T04:21:24;1.27;;;0.60;;
12715;SDS011;6422;49.938;9.124;2023-01-05T04:23:49;1.40;;;0.70;;
12715;SDS011;6422;49.938;9.124;2023-01-05T04:26:16;1.83;;;0.67;;
12715;SDS011;6422;49.938;9.124;2023-01-05T04:28:41;1.23;;;0.85;;
12715;SDS011;6422;49.938;9.124;2023-01-05T04:31:06;4.20;;;0.90;;
12715;SDS011;6422;49.938;9.124;2023-01-05T04:33:31;4.65;;;0.75;;
12715;SDS011;6422;49.938;9.124;2023-01-05T04:35:56;1.00;;;0.90;;
12715;SDS011;6422;49.938;9.124;2023-01-05T04:38:22;7.40;;;0.70;;
12715;SDS011;6422;49.938;9.124;2023-01-05T04:40:50;0.82;;;0.45;;
12715;SDS011;6422;49.938;9.124;2023-01-05T04:43:16;1.10;;;0.80;;
12715;SDS011;6422;49.938;9.124;2023-01-05T04:45:41;6.40;;;1.00;;
12715;SDS011;6422;49.938;9.124;2023-01-05T04:48:06;2.50;;;1.08;;
12715;SDS011;6422;49.938;9.124;2023-01-05T04:50:31;1.30;;;0.87;;
12715;SDS011;6422;49.938;9.124;2023-01-05T04:52:56;2.93;;;0.70;;
12715;SDS011;6422;49.938;9.124;2023-01-05T04:55:21;2.15;;;1.27;;
12715;SDS011;6422;49.938;9.124;2023-01-05T04:57:47;1.80;;;1.23;;
12715;SDS011;6422;49.938;9.124;2023-01-05T05:00:12;5.18;;;1.80;;
12715;SDS011;6422;49.938;9.124;2023-01-05T05:02:37;2.30;;;1.37;;
12715;SDS011;6422;49.938;9.124;2023-01-05T05:05:02;10.60;;;1.53;;
12715;SDS011;6422;49.938;9.124;2023-01-05T05:07:28;4.97;;;1.93;;
12715;SDS011;6422;49.938;9.124;2023-01-05T05:09:53;1.00;;;0.80;;
12715;SDS011;6422;49.938;9.124;2023-01-05T05:12:18;10.65;;;1.95;;
12715;SDS011;6422;49.938;9.124;2023-01-05T05:14:45;7.73;;;1.60;;
12715;SDS011;6422;49.938;9.124;2023-01-05T05:17:10;3.23;;;1.00;;
12715;SDS011;6422;49.938;9.124;2023-01-05T05:19:35;2.00;;;1.45;;
12715;SDS011;6422;49.938;9.124;2023-01-05T05:22:00;12.10;;;1.77;;
12715;SDS011;6422;49.938;9.124;2023-01-05T05:24:25;12.00;;;1.40;;
12715;SDS011;6422;49.938;9.124;2023-01-05T05:26:51;3.80;;;0.70;;
12715;SDS011;6422;49.938;9.124;2023-01-05T05:29:16;8.00;;;1.40;;
12715;SDS011;6422;49.938;9.124;2023-01-05T05:31:41;5.77;;;1.43;;
12715;SDS011;6422;49.938;9.124;2023-01-05T05:34:06;3.50;;;1.67;;
12715;SDS011;6422;49.938;9.124;2023-01-05T05:36:31;6.03;;;1.25;;
12715;SDS011;6422;49.938;9.124;2023-01-05T05:38:57;2.97;;;1.47;;
12715;SDS011;6422;49.938;9.124;2023-01-05T05:41:23;2.40;;;1.00;;
12715;SDS011;6422;49.938;9.124;2023-01-05T05:43:48;1.07;;;0.90;;
12715;SDS011;6422;49.938;9.124;2023-01-05T05:46:13;1.70;;;0.80;;
12715;SDS011;6422;49.938;9.124;2023-01-05T05:48:38;4.30;;;2.15;;
12715;SDS011;6422;49.938;9.124;2023-01-05T05:51:03;10.13;;;0.80;;
12715;SDS011;6422;49.938;9.124;2023-01-05T05:53:29;2.70;;;1.47;;
12715;SDS011;6422;49.938;9.124;2023-01-05T05:55:54;8.17;;;1.50;;
12715;SDS011;6422;49.938;9.124;2023-01-05T05:58:19;14.67;;;2.00;;
12715;SDS011;6422;49.938;9.124;2023-01-05T06:00:44;6.00;;;2.03;;
12715;SDS011;6422;49.938;9.124;2023-01-05T06:03:10;2.40;;;0.80;;
12715;SDS011;6422;49.938;9.124;2023-01-05T06:05:35;4.63;;;1.10;;
12715;SDS011;6422;49.938;9.124;2023-01-05T06:08:00;7.73;;;1.47;;
12715;SDS011;6422;49.938;9.124;2023-01-05T06:10:26;12.20;;;1.97;;
12715;SDS011;6422;49.938;9.124;2023-01-05T06:12:54;6.63;;;1.93;;
12715;SDS011;6422;49.938;9.124;2023-01-05T06:15:20;1.20;;;1.00;;
12715;SDS011;6422;49.938;9.124;2023-01-05T06:17:45;7.93;;;2.10;;
12715;SDS011;6422;49.938;9.124;2023-01-05T06:20:10;5.87;;;1.77;;
12715;SDS011;6422;49.938;9.124;2023-01-05T06:22:36;2.83;;;1.23;;
12715;SDS011;6422;49.938;9.124;2023-01-05T06:25:01;3.63;;;1.47;;
12715;SDS011;6422;49.938;9.124;2023-01-05T06:27:26;9.40;;;2.27;;
12715;SDS011;6422;49.938;9.124;2023-01-05T06:29:52;6.10;;;1.60;;
12715;SDS011;6422;49.938;9.124;2023-01-05T06:32:17;11.33;;;3.50;;
12715;SDS011;6422;49.938;9.124;2023-01-05T06:34:42;7.07;;;1.70;;
12715;SDS011;6422;49.938;9.124;2023-01-05T06:37:07;7.28;;;1.27;;
12715;SDS011;6422;49.938;9.124;2023-01-05T06:39:32;1.50;;;0.80;;
12715;SDS011;6422;49.938;9.124;2023-01-05T06:41:57;6.47;;;1.67;;
12715;SDS011;6422;49.938;9.124;2023-01-05T06:44:22;7.82;;;1.50;;
12715;SDS011;6422;49.938;9.124;2023-01-05T06:46:48;2.00;;;1.30;;
12715;SDS011;6422;49.938;9.124;2023-01-05T06:49:13;15.77;;;2.75;;
12715;SDS011;6422;49.938;9.124;2023-01-05T06:51:38;4.90;;;1.90;;
12715;SDS011;6422;49.938;9.124;2023-01-05T06:54:04;6.73;;;2.10;;
12715;SDS011;6422;49.938;9.124;2023-01-05T06:56:29;12.17;;;1.33;;
12715;SDS011;6422;49.938;9.124;2023-01-05T06:58:54;8.65;;;1.38;;
12715;SDS011;6422;49.938;9.124;2023-01-05T07:01:19;2.67;;;1.52;;
12715;SDS011;6422;49.938;9.124;2023-01-05T07:03:45;3.70;;;1.27;;
12715;SDS011;6422;49.938;9.124;2023-01-05T07:06:11;10.10;;;3.07;;
12715;SDS011;6422;49.938;9.124;2023-01-05T07:08:37;5.37;;;1.27;;
12715;SDS011;6422;49.938;9.124;2023-01-05T07:11:02;3.78;;;1.67;;
12715;SDS011;6422;49.938;9.124;2023-01-05T07:13:28;6.23;;;1.47;;
12715;SDS011;6422;49.938;9.124;2023-01-05T07:15:53;10.53;;;1.20;;
12715;SDS011;6422;49.938;9.124;2023-01-05T07:18:18;1.45;;;0.75;;
12715;SDS011;6422;49.938;9.124;2023-01-05T07:20:43;2.17;;;1.10;;
12715;SDS011;6422;49.938;9.124;2023-01-05T07:23:08;3.67;;;1.25;;
12715;SDS011;6422;49.938;9.124;2023-01-05T07:25:33;3.63;;;1.00;;
12715;SDS011;6422;49.938;9.124;2023-01-05T07:27:59;1.10;;;0.77;;
12715;SDS011;6422;49.938;9.124;2023-01-05T07:30:24;7.47;;;2.07;;
12715;SDS011;6422;49.938;9.124;2023-01-05T07:32:49;5.05;;;1.48;;
12715;SDS011;6422;49.938;9.124;2023-01-05T07:35:14;5.75;;;1.77;;
12715;SDS011;6422;49.938;9.124;2023-01-05T07:37:39;0.70;;;0.60;;
12715;SDS011;6422;49.938;9.124;2023-01-05T07:40:05;6.80;;;1.30;;
12715;SDS011;6422;49.938;9.124;2023-01-05T07:42:30;2.20;;;1.17;;
12715;SDS011;6422;49.938;9.124;2023-01-05T07:44:55;2.40;;;1.33;;
12715;SDS011;6422;49.938;9.124;2023-01-05T07:47:20;2.93;;;1.20;;
12715;SDS011;6422;49.938;9.124;2023-01-05T07:49:46;2.83;;;1.20;;
12715;SDS011;6422;49.938;9.124;2023-01-05T07:52:11;2.73;;;0.83;;
12715;SDS011;6422;49.938;9.124;2023-01-05T07:54:36;2.93;;;0.80;;
12715;SDS011;6422;49.938;9.124;2023-01-05T07:57:02;5.43;;;1.40;;
12715;SDS011;6422;49.938;9.124;2023-01-05T07:59:27;15.20;;;1.00;;
12715;SDS011;6422;49.938;9.124;2023-01-05T08:01:52;9.13;;;1.58;;
12715;SDS011;6422;49.938;9.124;2023-01-05T08:04:17;4.57;;;1.00;;
12715;SDS011;6422;49.938;9.124;2023-01-05T08:06:42;9.93;;;1.13;;
12715;SDS011;6422;49.938;9.124;2023-01-05T08:09:07;5.40;;;2.10;;
12715;SDS011;6422;49.938;9.124;2023-01-05T08:11:51;3.37;;;1.20;;
12715;SDS011;6422;49.938;9.124;2023-01-05T08:14:16;5.13;;;1.73;;
12715;SDS011;6422;49.938;9.124;2023-01-05T08:16:41;2.17;;;1.08;;
12715;SDS011;6422;49.938;9.124;2023-01-05T08:19:07;3.30;;;0.83;;
12715;SDS011;6422;49.938;9.124;2023-01-05T08:21:32;2.60;;;1.30;;
12715;SDS011;6422;49.938;9.124;2023-01-05T08:23:57;1.38;;;0.77;;
12715;SDS011;6422;49.938;9.124;2023-01-05T08:26:23;0.93;;;0.80;;
12715;SDS011;6422;49.938;9.124;2023-01-05T08:28:49;2.83;;;1.27;;
12715;SDS011;6422;49.938;9.124;2023-01-05T08:31:16;6.63;;;1.30;;
12715;SDS011;6422;49.938;9.124;2023-01-05T08:33:42;10.03;;;1.93;;
12715;SDS011;6422;49.938;9.124;2023-01-05T08:36:08;9.70;;;1.37;;
12715;SDS011;6422;49.938;9.124;2023-01-05T08:38:33;1.57;;;1.00;;
12715;SDS011;6422;49.938;9.124;2023-01-05T08:40:58;3.10;;;0.98;;
12715;SDS011;6422;49.938;9.124;2023-01-05T08:43:24;5.10;;;1.53;;
12715;SDS011;6422;49.938;9.124;2023-01-05T08:45:49;0.90;;;0.70;;
12715;SDS011;6422;49.938;9.124;2023-01-05T08:48:14;2.25;;;0.88;;
12715;SDS011;6422;49.938;9.124;2023-01-05T08:50:40;2.27;;;2.03;;
12715;SDS011;6422;49.938;9.124;2023-01-05T08:53:05;2.80;;;1.15;;
12715;SDS011;6422;49.938;9.124;2023-01-05T08:55:30;7.30;;;1.67;;
12715;SDS011;6422;49.938;9.124;2023-01-05T08:57:55;2.08;;;1.10;;
12715;SDS011;6422;49.938;9.124;2023-01-05T09:00:21;5.60;;;1.00;;
12715;SDS011;6422;49.938;9.124;2023-01-05T09:02:46;1.57;;;1.07;;
12715;SDS011;6422;49.938;9.124;2023-01-05T09:05:11;6.20;;;1.83;;
12715;SDS011;6422;49.938;9.124;2023-01-05T09:07:37;10.85;;;2.05;;
12715;SDS011;6422;49.938;9.124;2023-01-05T09:10:02;3.25;;;1.65;;
12715;SDS011;6422;49.938;9.124;2023-01-05T09:12:27;8.77;;;0.90;;
12715;SDS011;6422;49.938;9.124;2023-01-05T09:14:52;1.27;;;0.83;;
12715;SDS011;6422;49.938;9.124;2023-01-05T09:17:18;15.37;;;1.40;;
12715;SDS011;6422;49.938;9.124;2023-01-05T09:19:44;8.50;;;2.80;;
12715;SDS011;6422;49.938;9.124;2023-01-05T09:22:09;2.20;;;0.70;;
12715;SDS011;6422;49.938;9.124;2023-01-05T09:24:34;2.90;;;1.20;;
12715;SDS011;6422;49.938;9.124;2023-01-05T09:26:59;1.90;;;1.13;;
12715;SDS011;6422;49.938;9.124;2023-01-05T09:29:24;7.63;;;1.60;;
12715;SDS011;6422;49.938;9.124;2023-01-05T09:31:50;0.90;;;0.70;;
12715;SDS011;6422;49.938;9.124;2023-01-05T09:34:15;9.03;;;1.20;;
12715;SDS011;6422;49.938;9.124;2023-01-05T09:36:40;6.00;;;2.03;;
12715;SDS011;6422;49.938;9.124;2023-01-05T09:39:06;1.33;;;1.02;;
12715;SDS011;6422;49.938;9.124;2023-01-05T09:44:03;4.50;;;2.40;;
12715;SDS011;6422;49.938;9.124;2023-01-05T09:46:32;4.47;;;1.40;;
12715;SDS011;6422;49.938;9.124;2023-01-05T09:48:59;3.90;;;1.07;;
12715;SDS011;6422;49.938;9.124;2023-01-05T09:51:25;12.33;;;3.20;;
12715;SDS011;6422;49.938;9.124;2023-01-05T09:53:51;2.10;;;1.00;;
12715;SDS011;6422;49.938;9.124;2023-01-05T09:58:44;6.30;;;1.63;;
12715;SDS011;6422;49.938;9.124;2023-01-05T10:01:13;4.47;;;1.80;;
12715;SDS011;6422;49.938;9.124;2023-01-05T10:03:41;2.47;;;1.33;;
12715;SDS011;6422;49.938;9.124;2023-01-05T10:06:10;12.70;;;1.77;;
12715;SDS011;6422;49.938;9.124;2023-01-05T10:08:41;5.60;;;1.50;;
12715;SDS011;6422;49.938;9.124;2023-01-05T10:11:12;1.03;;;0.80;;
12715;SDS011;6422;49.938;9.124;2023-01-05T10:14:02;5.27;;;1.47;;
12715;SDS011;6422;49.938;9.124;2023-01-05T10:16:29;3.07;;;1.57;;
12715;SDS011;6422;49.938;9.124;2023-01-05T10:18:55;5.40;;;1.57;;
12715;SDS011;6422;49.938;9.124;2023-01-05T10:23:57;6.13;;;1.60;;
12715;SDS011;6422;49.938;9.124;2023-01-05T10:26:39;6.33;;;0.97;;
12715;SDS011;6422;49.938;9.124;2023-01-05T10:29:09;1.20;;;1.00;;
12715;SDS011;6422;49.938;9.124;2023-01-05T10:32:22;5.03;;;1.53;;
12715;SDS011;6422;49.938;9.124;2023-01-05T10:39:51;2.33;;;1.37;;
12715;SDS011;6422;49.938;9.124;2023-01-05T10:45:06;4.87;;;1.03;;
12715;SDS011;6422;49.938;9.124;2023-01-05T10:47:34;2.80;;;1.03;;
12715;SDS011;6422;49.938;9.124;2023-01-05T10:50:00;8.40;;;2.23;;
12715;SDS011;6422;49.938;9.124;2023-01-05T10:52:26;6.67;;;1.23;;
12715;SDS011;6422;49.938;9.124;2023-01-05T10:54:58;6.20;;;1.73;;
12715;SDS011;6422;49.938;9.124;2023-01-05T10:57:39;3.47;;;1.60;;
12715;SDS011;6422;49.938;9.124;2023-01-05T11:00:09;3.57;;;1.43;;
12715;SDS011;6422;49.938;9.124;2023-01-05T11:02:36;4.33;;;1.70;;
12715;SDS011;6422;49.938;9.124;2023-01-05T11:07:47;6.43;;;1.63;;
12715;SDS011;6422;49.938;9.124;2023-01-05T11:10:23;2.30;;;1.30;;
12715;SDS011;6422;49.938;9.124;2023-01-05T11:12:50;1.13;;;0.93;;
12715;SDS011;6422;49.938;9.124;2023-01-05T11:15:16;25.23;;;1.80;;
12715;SDS011;6422;49.938;9.124;2023-01-05T11:17:43;5.43;;;1.27;;
12715;SDS011;6422;49.938;9.124;2023-01-05T11:20:15;7.63;;;1.77;;
12715;SDS011;6422;49.938;9.124;2023-01-05T11:22:41;8.53;;;1.33;;
12715;SDS011;6422;49.938;9.124;2023-01-05T11:28:05;11.20;;;2.40;;
12715;SDS011;6422;49.938;9.124;2023-01-05T11:30:30;19.67;;;1.57;;
12715;SDS011;6422;49.938;9.124;2023-01-05T11:32:57;1.97;;;1.00;;
12715;SDS011;6422;49.938;9.124;2023-01-05T11:35:35;2.83;;;1.13;;
12715;SDS011;6422;49.938;9.124;2023-01-05T11:38:01;3.43;;;1.67;;
12715;SDS011;6422;49.938;9.124;2023-01-05T11:40:28;3.23;;;1.37;;
12715;SDS011;6422;49.938;9.124;2023-01-05T11:42:54;3.73;;;1.40;;
12715;SDS011;6422;49.938;9.124;2023-01-05T11:45:26;5.27;;;1.70;;
12715;SDS011;6422;49.938;9.124;2023-01-05T11:47:53;3.47;;;1.30;;
12715;SDS011;6422;49.938;9.124;2023-01-05T11:50:24;1.77;;;0.70;;
12715;SDS011;6422;49.938;9.124;2023-01-05T11:52:54;10.70;;;2.90;;
12715;SDS011;6422;49.938;9.124;2023-01-05T11:57:47;5.43;;;2.20;;
12715;SDS011;6422;49.938;9.124;2023-01-05T12:03:00;4.50;;;1.70;;
12715;SDS011;6422;49.938;9.124;2023-01-05T12:05:35;16.33;;;2.37;;
12715;SDS011;6422;49.938;9.124;2023-01-05T12:08:12;6.30;;;1.77;;
12715;SDS011;6422;49.938;9.124;2023-01-05T12:11:21;6.60;;;2.80;;
12715;SDS011;6422;49.938;9.124;2023-01-05T12:21:11;9.70;;;1.20;;
12715;SDS011;6422;49.938;9.124;2023-01-05T12:26:19;2.00;;;1.50;;
12715;SDS011;6422;49.938;9.124;2023-01-05T12:28:56;7.57;;;2.27;;
12715;SDS011;6422;49.938;9.124;2023-01-05T12:36:38;12.90;;;2.83;;
12715;SDS011;6422;49.938;9.124;2023-01-05T12:39:11;7.70;;;2.37;;
12715;SDS011;6422;49.938;9.124;2023-01-05T12:44:33;3.93;;;1.80;;
12715;SDS011;6422;49.938;9.124;2023-01-05T12:47:06;21.10;;;3.60;;
12715;SDS011;6422;49.938;9.124;2023-01-05T12:50:10;5.23;;;1.67;;
12715;SDS011;6422;49.938;9.124;2023-01-05T12:52:34;9.53;;;2.83;;
12715;SDS011;6422;49.938;9.124;2023-01-05T12:55:02;5.43;;;2.00;;
12715;SDS011;6422;49.938;9.124;2023-01-05T12:57:30;21.03;;;2.90;;
12715;SDS011;6422;49.938;9.124;2023-01-05T13:00:09;5.60;;;1.97;;
12715;SDS011;6422;49.938;9.124;2023-01-05T13:02:42;8.43;;;3.13;;
12715;SDS011;6422;49.938;9.124;2023-01-05T13:05:15;5.27;;;1.47;;
12715;SDS011;6422;49.938;9.124;2023-01-05T13:07:48;5.40;;;2.23;;
12715;SDS011;6422;49.938;9.124;2023-01-05T13:10:38;12.00;;;2.87;;
12715;SDS011;6422;49.938;9.124;2023-01-05T13:13:02;6.73;;;2.63;;
12715;SDS011;6422;49.938;9.124;2023-01-05T13:15:29;9.60;;;3.00;;
12715;SDS011;6422;49.938;9.124;2023-01-05T13:17:56;5.90;;;2.27;;
12715;SDS011;6422;49.938;9.124;2023-01-05T13:20:27;6.63;;;1.90;;
12715;SDS011;6422;49.938;9.124;2023-01-05T13:23:15;4.43;;;1.90;;
12715;SDS011;6422;49.938;9.124;2023-01-05T13:25:44;6.87;;;1.63;;
12715;SDS011;6422;49.938;9.124;2023-01-05T13:28:16;10.50;;;2.80;;
12715;SDS011;6422;49.938;9.124;2023-01-05T13:30:44;7.67;;;1.83;;
12715;SDS011;6422;49.938;9.124;2023-01-05T13:53:30;7.75;;;2.17;;
12715;SDS011;6422;49.938;9.124;2023-01-05T13:56:01;3.93;;;2.50;;
12715;SDS011;6422;49.938;9.124;2023-01-05T14:00:59;2.60;;;1.57;;
12715;SDS011;6422;49.938;9.124;2023-01-05T14:03:27;5.57;;;1.73;;
12715;SDS011;6422;49.938;9.124;2023-01-05T14:05:53;14.13;;;2.20;;
12715;SDS011;6422;49.938;9.124;2023-01-05T14:08:27;4.57;;;1.50;;
12715;SDS011;6422;49.938;9.124;2023-01-05T14:19:07;8.10;;;2.53;;
12715;SDS011;6422;49.938;9.124;2023-01-05T14:24:30;7.20;;;1.40;;
12715;SDS011;6422;49.938;9.124;2023-01-05T14:27:12;7.57;;;1.40;;
12715;SDS011;6422;49.938;9.124;2023-01-05T14:32:12;4.20;;;2.27;;
12715;SDS011;6422;49.938;9.124;2023-01-05T14:34:48;7.43;;;2.00;;
12715;SDS011;6422;49.938;9.124;2023-01-05T14:39:48;4.90;;;1.50;;
12715;SDS011;6422;49.938;9.124;2023-01-05T14:42:22;7.33;;;1.83;;
12715;SDS011;6422;49.938;9.124;2023-01-05T14:45:05;10.60;;;2.43;;
12715;SDS011;6422;49.938;9.124;2023-01-05T14:47:35;4.03;;;1.70;;
12715;SDS011;6422;49.938;9.124;2023-01-05T14:50:02;14.93;;;1.53;;
12715;SDS011;6422;49.938;9.124;2023-01-05T14:57:47;2.27;;;1.57;;
12715;SDS011;6422;49.938;9.124;2023-01-05T15:00:15;2.40;;;1.23;;
12715;SDS011;6422;49.938;9.124;2023-01-05T15:02:42;6.40;;;1.97;;
12715;SDS011;6422;49.938;9.124;2023-01-05T15:05:10;8.80;;;1.33;;
12715;SDS011;6422;49.938;9.124;2023-01-05T15:07:53;8.90;;;1.47;;
12715;SDS011;6422;49.938;9.124;2023-01-05T15:28:40;2.97;;;1.33;;
12715;SDS011;6422;49.938;9.124;2023-01-05T15:33:58;4.40;;;1.60;;
12715;SDS011;6422;49.938;9.124;2023-01-05T15:36:27;5.10;;;2.50;;
12715;SDS011;6422;49.938;9.124;2023-01-05T15:38:52;13.37;;;2.73;;
12715;SDS011;6422;49.938;9.124;2023-01-05T15:41:18;3.00;;;1.43;;
12715;SDS011;6422;49.938;9.124;2023-01-05T15:43:44;9.00;;;2.40;;
12715;SDS011;6422;49.938;9.124;2023-01-05T15:46:10;31.40;;;3.67;;
12715;SDS011;6422;49.938;9.124;2023-01-05T15:48:39;4.63;;;2.20;;
12715;SDS011;6422;49.938;9.124;2023-01-05T15:51:05;6.47;;;1.83;;
12715;SDS011;6422;49.938;9.124;2023-01-05T15:55:57;5.07;;;1.57;;
12715;SDS011;6422;49.938;9.124;2023-01-05T15:58:22;3.50;;;1.60;;
12715;SDS011;6422;49.938;9.124;2023-01-05T16:03:32;9.20;;;1.80;;
12715;SDS011;6422;49.938;9.124;2023-01-05T16:05:58;7.77;;;2.10;;
12715;SDS011;6422;49.938;9.124;2023-01-05T16:08:24;10.93;;;1.93;;
12715;SDS011;6422;49.938;9.124;2023-01-05T16:10:50;2.77;;;1.47;;
12715;SDS011;6422;49.938;9.124;2023-01-05T16:13:28;9.10;;;2.03;;
12715;SDS011;6422;49.938;9.124;2023-01-05T16:15:55;6.00;;;2.20;;
12715;SDS011;6422;49.938;9.124;2023-01-05T16:18:25;8.03;;;2.83;;
12715;SDS011;6422;49.938;9.124;2023-01-05T16:20:51;3.67;;;1.70;;
12715;SDS011;6422;49.938;9.124;2023-01-05T16:25:49;7.40;;;1.67;;
12715;SDS011;6422;49.938;9.124;2023-01-05T16:28:16;2.87;;;1.47;;
12715;SDS011;6422;49.938;9.124;2023-01-05T16:30:42;3.50;;;2.03;;
12715;SDS011;6422;49.938;9.124;2023-01-05T16:35:41;6.70;;;2.33;;
12715;SDS011;6422;49.938;9.124;2023-01-05T16:40:32;3.43;;;1.83;;
12715;SDS011;6422;49.938;9.124;2023-01-05T16:42:57;5.80;;;1.63;;
12715;SDS011;6422;49.938;9.124;2023-01-05T16:45:23;10.03;;;2.90;;
12715;SDS011;6422;49.938;9.124;2023-01-05T16:47:49;30.77;;;11.70;;
12715;SDS011;6422;49.938;9.124;2023-01-05T16:52:41;10.13;;;4.95;;
12715;SDS011;6422;49.938;9.124;2023-01-05T16:55:20;16.97;;;5.50;;
12715;SDS011;6422;49.938;9.124;2023-01-05T16:57:46;20.67;;;6.13;;
12715;SDS011;6422;49.938;9.124;2023-01-05T17:03:42;26.23;;;10.33;;
12715;SDS011;6422;49.938;9.124;2023-01-05T17:05:41;4.77;;;3.17;;
12715;SDS011;6422;49.938;9.124;2023-01-05T17:08:15;10.03;;;3.33;;
12715;SDS011;6422;49.938;9.124;2023-01-05T17:10:43;8.27;;;3.23;;
12715;SDS011;6422;49.938;9.124;2023-01-05T17:13:13;8.77;;;2.87;;
12715;SDS011;6422;49.938;9.124;2023-01-05T17:15:42;12.00;;;4.10;;
12715;SDS011;6422;49.938;9.124;2023-01-05T17:21:02;10.30;;;3.07;;
12715;SDS011;6422;49.938;9.124;2023-01-05T17:25:56;5.85;;;2.40;;
12715;SDS011;6422;49.938;9.124;2023-01-05T17:28:22;6.47;;;2.33;;
12715;SDS011;6422;49.938;9.124;2023-01-05T17:30:48;12.43;;;2.80;;
12715;SDS011;6422;49.938;9.124;2023-01-05T17:33:13;3.70;;;2.00;;
12715;SDS011;6422;49.938;9.124;2023-01-05T17:35:38;8.23;;;2.57;;
12715;SDS011;6422;49.938;9.124;2023-01-05T17:38:04;11.93;;;2.40;;
12715;SDS011;6422;49.938;9.124;2023-01-05T17:40:29;6.93;;;1.60;;